createdAt,value
2022-09-03T00:00:02.342Z,36.42
2022-09-03T00:01:02.332Z,36.42
2022-09-03T00:02:02.376Z,36.25
2022-09-03T00:03:02.395Z,36.09
2022-09-03T00:04:02.318Z,36.42
2022-09-03T00:05:02.306Z,37.06
2022-09-03T00:06:02.311Z,36.74
2022-09-03T00:07:02.304Z,36.90
2022-09-03T00:08:02.319Z,37.38
2022-09-03T00:09:02.282Z,36.74
2022-09-03T00:10:02.276Z,36.42
2022-09-03T00:11:02.276Z,36.58
2022-09-03T00:12:02.273Z,36.42
2022-09-03T00:13:02.268Z,36.42
2022-09-03T00:14:02.253Z,36.58
2022-09-03T00:15:02.244Z,36.09
2022-09-03T00:16:02.316Z,36.42
2022-09-03T00:17:02.227Z,36.74
2022-09-03T00:18:02.235Z,36.42
2022-09-03T00:19:02.217Z,37.06
2022-09-03T00:20:02.214Z,37.38
2022-09-03T00:21:02.192Z,36.90
2022-09-03T00:22:02.192Z,36.58
2022-09-03T00:23:02.190Z,36.58
2022-09-03T00:24:02.180Z,36.58
2022-09-03T00:25:02.171Z,36.42
2022-09-03T00:26:02.158Z,36.74
2022-09-03T00:27:02.157Z,36.74
2022-09-03T00:28:02.162Z,36.90
2022-09-03T00:29:02.162Z,37.22
2022-09-03T00:30:02.134Z,37.06
2022-09-03T00:31:02.211Z,37.06
2022-09-03T00:32:02.117Z,36.74
2022-09-03T00:33:02.129Z,36.90
2022-09-03T00:34:02.117Z,37.06
2022-09-03T00:35:02.099Z,36.90
2022-09-03T00:36:02.090Z,36.58
2022-09-03T00:37:02.093Z,36.74
2022-09-03T00:38:02.094Z,36.25
2022-09-03T00:39:02.056Z,36.58
2022-09-03T00:40:02.122Z,36.74
2022-09-03T00:41:02.058Z,36.90
2022-09-03T00:42:02.038Z,37.54
2022-09-03T00:43:02.091Z,36.90
2022-09-03T00:44:02.027Z,37.38
2022-09-03T00:45:02.023Z,37.06
2022-09-03T00:46:02.109Z,36.90
2022-09-03T00:47:03.015Z,37.06
2022-09-03T00:48:02.023Z,36.90
2022-09-03T00:49:01.990Z,36.25
2022-09-03T00:50:02.021Z,36.74
2022-09-03T00:51:01.973Z,37.06
2022-09-03T00:52:01.977Z,37.87
2022-09-03T00:53:02.000Z,37.38
2022-09-03T00:54:01.961Z,37.54
2022-09-03T00:55:01.962Z,37.38
2022-09-03T00:56:01.952Z,37.22
2022-09-03T00:57:01.961Z,37.22
2022-09-03T00:58:01.974Z,36.90
2022-09-03T00:59:01.938Z,36.74
2022-09-03T01:00:01.915Z,36.90
2022-09-03T01:01:01.908Z,36.90
2022-09-03T01:02:01.976Z,36.90
2022-09-03T01:03:01.921Z,37.06
2022-09-03T01:04:01.884Z,36.74
2022-09-03T01:05:01.880Z,36.90
2022-09-03T01:06:02.146Z,36.90
2022-09-03T01:07:01.871Z,37.06
2022-09-03T01:08:01.888Z,37.06
2022-09-03T01:09:01.856Z,36.90
2022-09-03T01:10:01.857Z,36.90
2022-09-03T01:11:01.897Z,37.06
2022-09-03T01:12:01.834Z,36.74
2022-09-03T01:13:01.837Z,36.74
2022-09-03T01:14:01.834Z,36.90
2022-09-03T01:15:01.835Z,36.90
2022-09-03T01:16:01.880Z,37.22
2022-09-03T01:17:01.812Z,36.74
2022-09-03T01:18:01.816Z,36.58
2022-09-03T01:19:01.777Z,36.90
2022-09-03T01:20:01.799Z,36.74
2022-09-03T01:21:01.778Z,37.06
2022-09-03T01:22:01.765Z,36.74
2022-09-03T01:23:01.789Z,36.74
2022-09-03T01:24:01.742Z,36.90
2022-09-03T01:25:01.758Z,36.90
2022-09-03T01:26:01.763Z,37.22
2022-09-03T01:27:01.735Z,39.16
2022-09-03T01:28:01.742Z,37.71
2022-09-03T01:29:01.713Z,36.90
2022-09-03T01:30:01.717Z,37.22
2022-09-03T01:31:01.765Z,37.22
2022-09-03T01:32:01.695Z,37.38
2022-09-03T01:33:01.724Z,37.06
2022-09-03T01:34:01.695Z,37.06
2022-09-03T01:35:01.706Z,37.22
2022-09-03T01:36:01.709Z,37.38
2022-09-03T01:37:01.688Z,36.58
2022-09-03T01:38:01.676Z,36.58
2022-09-03T01:39:01.648Z,37.06
2022-09-03T01:40:01.731Z,37.38
2022-09-03T01:41:01.647Z,36.90
2022-09-03T01:42:01.640Z,37.22
2022-09-03T01:43:01.637Z,36.42
2022-09-03T01:44:01.612Z,36.90
2022-09-03T01:45:01.610Z,36.90
2022-09-03T01:46:01.671Z,37.22
2022-09-03T01:47:01.596Z,37.71
2022-09-03T01:48:01.673Z,37.22
2022-09-03T01:49:01.604Z,37.71
2022-09-03T01:50:01.590Z,37.38
2022-09-03T01:51:01.575Z,37.38
2022-09-03T01:52:01.579Z,37.22
2022-09-03T01:53:01.569Z,37.38
2022-09-03T01:54:01.552Z,37.71
2022-09-03T01:55:01.566Z,37.06
2022-09-03T01:56:01.544Z,38.03
2022-09-03T01:57:01.517Z,37.54
2022-09-03T01:58:01.548Z,37.06
2022-09-03T01:59:01.517Z,37.22
2022-09-03T02:00:01.523Z,37.22
2022-09-03T02:01:01.497Z,37.54
2022-09-03T02:02:02.582Z,37.06
2022-09-03T02:03:01.536Z,37.06
2022-09-03T02:04:01.483Z,36.90
2022-09-03T02:05:01.480Z,37.54
2022-09-03T02:06:01.464Z,38.35
2022-09-03T02:07:01.462Z,37.71
2022-09-03T02:08:01.576Z,37.54
2022-09-03T02:09:01.435Z,37.54
2022-09-03T02:10:01.440Z,37.22
2022-09-03T02:11:01.437Z,37.38
2022-09-03T02:12:01.435Z,37.22
2022-09-03T02:13:01.450Z,37.06
2022-09-03T02:14:01.407Z,37.06
2022-09-03T02:15:01.398Z,37.22
2022-09-03T02:16:01.460Z,37.22
2022-09-03T02:17:01.397Z,37.06
2022-09-03T02:18:01.408Z,37.22
2022-09-03T02:19:01.397Z,37.38
2022-09-03T02:20:01.370Z,37.22
2022-09-03T02:21:01.366Z,36.74
2022-09-03T02:22:01.356Z,36.42
2022-09-03T02:23:01.375Z,36.74
2022-09-03T02:24:01.362Z,36.90
2022-09-03T02:25:01.346Z,36.90
2022-09-03T02:26:01.335Z,36.42
2022-09-03T02:27:01.335Z,37.38
2022-09-03T02:28:01.354Z,37.54
2022-09-03T02:29:01.311Z,37.38
2022-09-03T02:30:01.315Z,37.22
2022-09-03T02:31:01.367Z,37.38
2022-09-03T02:32:01.293Z,36.90
2022-09-03T02:33:01.323Z,37.22
2022-09-03T02:34:01.278Z,37.54
2022-09-03T02:35:01.265Z,37.38
2022-09-03T02:36:01.262Z,37.54
2022-09-03T02:37:01.265Z,37.54
2022-09-03T02:38:01.263Z,36.90
2022-09-03T02:39:01.232Z,37.22
2022-09-03T02:40:02.330Z,37.22
2022-09-03T02:41:01.232Z,37.38
2022-09-03T02:42:01.221Z,37.71
2022-09-03T02:43:01.238Z,37.38
2022-09-03T02:44:01.205Z,37.22
2022-09-03T02:45:01.193Z,37.54
2022-09-03T02:46:01.230Z,37.22
2022-09-03T02:47:01.184Z,37.22
2022-09-03T02:48:01.189Z,37.87
2022-09-03T02:49:01.168Z,37.38
2022-09-03T02:50:01.149Z,37.22
2022-09-03T02:51:01.156Z,37.22
2022-09-03T02:52:01.133Z,37.38
2022-09-03T02:53:01.173Z,37.38
2022-09-03T02:54:01.122Z,37.54
2022-09-03T02:55:01.142Z,37.71
2022-09-03T02:56:01.103Z,37.54
2022-09-03T02:57:01.102Z,37.22
2022-09-03T02:58:02.121Z,36.42
2022-09-03T02:59:01.100Z,37.54
2022-09-03T03:00:01.097Z,37.38
2022-09-03T03:01:01.123Z,37.22
2022-09-03T03:02:01.430Z,37.22
2022-09-03T03:03:01.716Z,37.22
2022-09-03T03:04:01.072Z,37.38
2022-09-03T03:05:01.052Z,37.54
2022-09-03T03:06:01.045Z,37.54
2022-09-03T03:07:01.039Z,37.54
2022-09-03T03:08:01.065Z,37.87
2022-09-03T03:09:01.030Z,37.71
2022-09-03T03:10:01.018Z,37.06
2022-09-03T03:11:01.009Z,37.22
2022-09-03T03:12:00.994Z,37.22
2022-09-03T03:13:01.009Z,36.90
2022-09-03T03:14:01.000Z,37.38
2022-09-03T03:15:00.987Z,37.71
2022-09-03T03:16:00.977Z,37.54
2022-09-03T03:17:01.092Z,37.54
2022-09-03T03:18:01.021Z,38.03
2022-09-03T03:19:00.961Z,37.87
2022-09-03T03:20:00.951Z,37.87
2022-09-03T03:21:00.954Z,37.38
2022-09-03T03:22:00.938Z,37.54
2022-09-03T03:23:00.942Z,37.54
2022-09-03T03:24:00.921Z,37.54
2022-09-03T03:25:00.917Z,37.38
2022-09-03T03:26:00.916Z,37.54
2022-09-03T03:27:00.907Z,37.38
2022-09-03T03:28:00.921Z,37.54
2022-09-03T03:29:00.884Z,37.38
2022-09-03T03:30:00.875Z,38.35
2022-09-03T03:31:00.917Z,38.35
2022-09-03T03:32:00.887Z,38.19
2022-09-03T03:33:00.889Z,38.19
2022-09-03T03:34:00.860Z,38.19
2022-09-03T03:35:00.850Z,38.03
2022-09-03T03:36:00.831Z,38.03
2022-09-03T03:37:00.828Z,37.87
2022-09-03T03:38:00.849Z,37.71
2022-09-03T03:39:00.825Z,37.87
2022-09-03T03:40:00.878Z,37.71
2022-09-03T03:41:00.812Z,37.54
2022-09-03T03:42:00.810Z,37.71
2022-09-03T03:43:00.813Z,37.71
2022-09-03T03:44:00.786Z,37.87
2022-09-03T03:45:00.771Z,37.87
2022-09-03T03:46:00.842Z,37.38
2022-09-03T03:47:00.761Z,37.54
2022-09-03T03:48:00.772Z,37.54
2022-09-03T03:49:00.760Z,37.54
2022-09-03T03:50:00.745Z,37.71
2022-09-03T03:51:00.738Z,37.54
2022-09-03T03:52:00.726Z,37.87
2022-09-03T03:53:00.732Z,37.87
2022-09-03T03:54:04.789Z,37.71
2022-09-03T03:55:01.705Z,37.54
2022-09-03T03:56:00.688Z,37.54
2022-09-03T03:57:00.686Z,37.54
2022-09-03T03:58:00.701Z,37.54
2022-09-03T03:59:00.672Z,37.87
2022-09-03T04:00:00.668Z,38.03
2022-09-03T04:01:00.687Z,37.87
2022-09-03T04:02:00.711Z,38.19
2022-09-03T04:03:00.655Z,38.03
2022-09-03T04:04:00.693Z,37.54
2022-09-03T04:05:00.636Z,37.71
2022-09-03T04:06:00.624Z,38.19
2022-09-03T04:07:00.613Z,38.03
2022-09-03T04:08:00.632Z,39.32
2022-09-03T04:09:00.597Z,39.16
2022-09-03T04:10:00.628Z,38.67
2022-09-03T04:11:00.602Z,38.03
2022-09-03T04:12:00.581Z,37.54
2022-09-03T04:13:00.619Z,37.38
2022-09-03T04:14:00.568Z,37.87
2022-09-03T04:15:00.582Z,37.87
2022-09-03T04:16:00.565Z,37.54
2022-09-03T04:17:00.597Z,37.38
2022-09-03T04:18:00.562Z,37.71
2022-09-03T04:19:00.517Z,37.71
2022-09-03T04:20:00.520Z,38.03
2022-09-03T04:21:00.548Z,38.03
2022-09-03T04:22:00.505Z,38.35
2022-09-03T04:23:00.524Z,37.87
2022-09-03T04:24:00.489Z,37.87
2022-09-03T04:25:00.494Z,38.03
2022-09-03T04:26:00.493Z,38.19
2022-09-03T04:27:00.484Z,37.71
2022-09-03T04:28:00.506Z,37.87
2022-09-03T04:29:00.459Z,38.19
2022-09-03T04:30:00.445Z,38.19
2022-09-03T04:31:00.475Z,38.03
2022-09-03T04:32:00.443Z,38.19
2022-09-03T04:33:00.469Z,37.87
2022-09-03T04:34:00.420Z,37.87
2022-09-03T04:35:00.417Z,38.03
2022-09-03T04:36:00.409Z,38.03
2022-09-03T04:37:00.416Z,39.16
2022-09-03T04:38:00.422Z,38.51
2022-09-03T04:39:00.393Z,38.67
2022-09-03T04:40:00.505Z,38.35
2022-09-03T04:41:00.367Z,37.71
2022-09-03T04:42:00.374Z,38.67
2022-09-03T04:43:00.379Z,38.19
2022-09-03T04:44:00.369Z,38.67
2022-09-03T04:45:00.343Z,38.83
2022-09-03T04:46:00.427Z,37.71
2022-09-03T04:47:00.332Z,37.87
2022-09-03T04:48:00.329Z,37.38
2022-09-03T04:49:00.335Z,38.51
2022-09-03T04:50:00.362Z,39.32
2022-09-03T04:51:00.315Z,38.35
2022-09-03T04:52:00.314Z,38.03
2022-09-03T04:53:02.588Z,39.16
2022-09-03T04:54:01.344Z,37.87
2022-09-03T04:55:00.284Z,38.67
2022-09-03T04:56:00.292Z,38.19
2022-09-03T04:57:00.274Z,37.71
2022-09-03T04:58:00.264Z,37.71
2022-09-03T04:59:00.289Z,38.67
2022-09-03T05:00:00.257Z,38.35
2022-09-03T05:01:00.346Z,37.87
2022-09-03T05:02:00.301Z,38.51
2022-09-03T05:03:00.222Z,37.87
2022-09-03T05:04:00.240Z,38.03
2022-09-03T05:05:00.309Z,38.03
2022-09-03T05:06:00.201Z,37.87
2022-09-03T05:07:00.188Z,38.35
2022-09-03T05:08:00.228Z,38.03
2022-09-03T05:09:00.193Z,37.87
2022-09-03T05:10:00.179Z,38.03
2022-09-03T05:11:00.177Z,38.03
2022-09-03T05:12:00.146Z,38.35
2022-09-03T05:13:00.143Z,37.38
2022-09-03T05:14:00.161Z,37.54
2022-09-03T05:15:00.134Z,38.35
2022-09-03T05:16:00.235Z,38.03
2022-09-03T05:17:00.288Z,38.03
2022-09-03T05:18:00.175Z,37.38
2022-09-03T05:19:00.122Z,38.03
2022-09-03T05:20:00.117Z,37.38
2022-09-03T05:21:01.108Z,37.38
2022-09-03T05:22:00.086Z,37.38
2022-09-03T05:23:00.080Z,37.22
2022-09-03T05:24:00.093Z,37.38
2022-09-03T05:25:00.082Z,37.54
2022-09-03T05:26:00.116Z,37.22
2022-09-03T05:27:00.045Z,37.71
2022-09-03T05:28:00.036Z,37.87
2022-09-03T05:29:00.093Z,37.54
2022-09-03T05:30:00.049Z,37.71
2022-09-03T05:31:00.026Z,38.35
2022-09-03T05:32:00.120Z,38.51
2022-09-03T05:33:00.094Z,38.19
2022-09-03T05:34:00.028Z,38.67
2022-09-03T05:35:00.004Z,38.67
2022-09-03T05:35:59.993Z,39.48
2022-09-03T05:36:59.979Z,38.99
2022-09-03T05:37:59.978Z,38.03
2022-09-03T05:38:59.994Z,37.71
2022-09-03T05:40:00.021Z,38.35
2022-09-03T05:40:59.961Z,37.22
2022-09-03T05:41:59.958Z,38.03
2022-09-03T05:42:59.950Z,38.03
2022-09-03T05:43:59.937Z,37.54
2022-09-03T05:44:59.941Z,37.22
2022-09-03T05:45:59.972Z,37.54
2022-09-03T05:46:59.946Z,37.06
2022-09-03T05:47:59.945Z,37.22
2022-09-03T05:48:59.930Z,37.38
2022-09-03T05:49:59.892Z,37.06
2022-09-03T05:50:59.898Z,38.19
2022-09-03T05:51:59.863Z,37.87
2022-09-03T05:52:59.876Z,37.87
2022-09-03T05:53:59.940Z,38.19
2022-09-03T05:54:59.850Z,38.51
2022-09-03T05:55:59.847Z,38.19
2022-09-03T05:57:00.684Z,37.38
2022-09-03T05:57:59.824Z,38.51
2022-09-03T05:58:59.861Z,37.54
2022-09-03T05:59:59.828Z,37.38
2022-09-03T06:00:59.829Z,38.19
2022-09-03T06:02:00.491Z,37.71
2022-09-03T06:03:00.892Z,37.38
2022-09-03T06:03:59.806Z,37.54
2022-09-03T06:04:59.783Z,37.22
2022-09-03T06:05:59.773Z,37.71
2022-09-03T06:06:59.763Z,37.06
2022-09-03T06:07:59.755Z,36.58
2022-09-03T06:08:59.777Z,36.90
2022-09-03T06:09:59.767Z,37.54
2022-09-03T06:10:59.745Z,38.35
2022-09-03T06:12:00.119Z,36.90
2022-09-03T06:12:59.732Z,36.42
2022-09-03T06:13:59.738Z,38.03
2022-09-03T06:14:59.705Z,37.06
2022-09-03T06:15:59.735Z,36.25
2022-09-03T06:16:59.714Z,36.90
2022-09-03T06:17:59.691Z,36.74
2022-09-03T06:18:59.717Z,36.90
2022-09-03T06:19:59.682Z,36.74
2022-09-03T06:20:59.658Z,36.25
2022-09-03T06:21:59.669Z,36.90
2022-09-03T06:22:59.659Z,37.06
2022-09-03T06:24:00.294Z,37.38
2022-09-03T06:24:59.964Z,39.80
2022-09-03T06:26:04.461Z,37.22
2022-09-03T06:27:01.634Z,36.90
2022-09-03T06:27:59.828Z,36.42
2022-09-03T06:28:59.633Z,36.58
2022-09-03T06:29:59.626Z,36.42
2022-09-03T06:30:59.599Z,36.90
2022-09-03T06:31:59.663Z,36.90
2022-09-03T06:32:59.586Z,37.38
2022-09-03T06:34:03.826Z,36.74
2022-09-03T06:35:00.584Z,36.09
2022-09-03T06:35:59.557Z,36.58
2022-09-03T06:36:59.575Z,36.42
2022-09-03T06:37:59.561Z,36.58
2022-09-03T06:38:59.596Z,36.74
2022-09-03T06:39:59.596Z,36.90
2022-09-03T06:40:59.534Z,37.71
2022-09-03T06:41:59.535Z,36.09
2022-09-03T06:42:59.521Z,36.09
2022-09-03T06:43:59.533Z,36.74
2022-09-03T06:44:59.514Z,36.58
2022-09-03T06:45:59.535Z,36.58
2022-09-03T06:46:59.494Z,38.67
2022-09-03T06:47:59.484Z,38.67
2022-09-03T06:48:59.503Z,38.67
2022-09-03T06:49:59.475Z,36.09
2022-09-03T06:50:59.478Z,36.74
2022-09-03T06:51:59.470Z,36.42
2022-09-03T06:52:59.447Z,37.22
2022-09-03T06:53:59.466Z,37.54
2022-09-03T06:54:59.453Z,37.38
2022-09-03T06:55:59.442Z,36.74
2022-09-03T06:57:00.249Z,36.42
2022-09-03T06:57:59.419Z,38.67
2022-09-03T06:58:59.428Z,37.06
2022-09-03T06:59:59.419Z,36.58
2022-09-03T07:00:59.447Z,36.09
2022-09-03T07:01:59.586Z,36.25
2022-09-03T07:02:59.382Z,36.25
2022-09-03T07:03:59.403Z,36.25
2022-09-03T07:04:59.371Z,36.42
2022-09-03T07:05:59.367Z,36.25
2022-09-03T07:06:59.369Z,35.45
2022-09-03T07:07:59.338Z,36.74
2022-09-03T07:08:59.357Z,36.09
2022-09-03T07:09:59.344Z,36.25
2022-09-03T07:10:59.329Z,37.22
2022-09-03T07:11:59.328Z,36.58
2022-09-03T07:12:59.315Z,37.22
2022-09-03T07:13:59.332Z,37.06
2022-09-03T07:14:59.308Z,36.74
2022-09-03T07:15:59.328Z,36.25
2022-09-03T07:16:59.302Z,37.22
2022-09-03T07:17:59.289Z,35.77
2022-09-03T07:18:59.287Z,35.93
2022-09-03T07:19:59.272Z,35.93
2022-09-03T07:20:59.259Z,36.09
2022-09-03T07:21:59.249Z,36.58
2022-09-03T07:22:59.240Z,37.54
2022-09-03T07:23:59.253Z,36.58
2022-09-03T07:24:59.230Z,36.58
2022-09-03T07:25:59.232Z,36.09
2022-09-03T07:26:59.222Z,37.54
2022-09-03T07:27:59.208Z,35.61
2022-09-03T07:28:59.222Z,35.77
2022-09-03T07:29:59.189Z,36.09
2022-09-03T07:30:59.195Z,35.61
2022-09-03T07:31:59.245Z,35.61
2022-09-03T07:32:59.164Z,35.77
2022-09-03T07:33:59.184Z,36.09
2022-09-03T07:35:00.181Z,35.93
2022-09-03T07:35:59.148Z,37.22
2022-09-03T07:36:59.153Z,35.13
2022-09-03T07:37:59.150Z,34.97
2022-09-03T07:38:59.167Z,35.61
2022-09-03T07:39:59.194Z,36.74
2022-09-03T07:40:59.119Z,36.25
2022-09-03T07:41:59.113Z,36.09
2022-09-03T07:42:59.107Z,37.06
2022-09-03T07:43:59.125Z,36.09
2022-09-03T07:44:59.099Z,35.93
2022-09-03T07:45:59.096Z,35.61
2022-09-03T07:46:59.148Z,36.42
2022-09-03T07:47:59.081Z,35.61
2022-09-03T07:48:59.086Z,35.61
2022-09-03T07:49:59.072Z,35.61
2022-09-03T07:50:59.052Z,36.42
2022-09-03T07:51:59.048Z,36.09
2022-09-03T07:52:59.042Z,36.74
2022-09-03T07:53:59.068Z,35.29
2022-09-03T07:54:59.125Z,36.58
2022-09-03T07:55:59.022Z,35.93
2022-09-03T07:56:59.035Z,35.93
2022-09-03T07:57:59.003Z,35.61
2022-09-03T07:58:59.013Z,35.61
2022-09-03T07:59:59.012Z,37.38
2022-09-03T08:00:59.007Z,36.74
2022-09-03T08:01:58.975Z,35.45
2022-09-03T08:02:58.962Z,37.06
2022-09-03T08:03:59.034Z,36.58
2022-09-03T08:04:59.001Z,35.93
2022-09-03T08:05:58.955Z,35.93
2022-09-03T08:06:58.952Z,36.25
2022-09-03T08:07:58.941Z,36.58
2022-09-03T08:09:04.203Z,35.93
2022-09-03T08:09:59.911Z,36.42
2022-09-03T08:10:58.910Z,35.29
2022-09-03T08:11:58.913Z,36.42
2022-09-03T08:12:58.901Z,37.54
2022-09-03T08:13:58.905Z,36.09
2022-09-03T08:14:58.879Z,35.93
2022-09-03T08:15:58.939Z,38.03
2022-09-03T08:16:58.872Z,36.42
2022-09-03T08:18:03.563Z,36.58
2022-09-03T08:18:59.868Z,35.77
2022-09-03T08:19:58.864Z,38.35
2022-09-03T08:20:58.840Z,36.58
2022-09-03T08:21:58.851Z,36.58
2022-09-03T08:22:58.813Z,38.51
2022-09-03T08:23:58.871Z,35.77
2022-09-03T08:24:58.810Z,35.77
2022-09-03T08:25:58.823Z,36.25
2022-09-03T08:26:58.795Z,36.90
2022-09-03T08:27:58.794Z,35.29
2022-09-03T08:28:58.805Z,35.45
2022-09-03T08:29:58.841Z,36.90
2022-09-03T08:30:58.816Z,35.61
2022-09-03T08:31:59.725Z,37.54
2022-09-03T08:32:58.756Z,35.61
2022-09-03T08:33:58.751Z,36.09
2022-09-03T08:34:58.747Z,37.38
2022-09-03T08:35:58.731Z,36.74
2022-09-03T08:36:58.729Z,35.77
2022-09-03T08:37:58.756Z,34.64
2022-09-03T08:38:58.726Z,36.74
2022-09-03T08:39:58.751Z,36.42
2022-09-03T08:40:58.690Z,38.03
2022-09-03T08:41:58.690Z,37.06
2022-09-03T08:42:58.688Z,36.74
2022-09-03T08:43:58.693Z,37.38
2022-09-03T08:44:58.702Z,37.06
2022-09-03T08:45:58.688Z,37.87
2022-09-03T08:46:58.683Z,36.90
2022-09-03T08:47:58.636Z,36.42
2022-09-03T08:48:58.646Z,36.74
2022-09-03T08:49:58.617Z,36.74
2022-09-03T08:50:58.613Z,35.61
2022-09-03T08:51:58.604Z,35.61
2022-09-03T08:52:58.595Z,36.90
2022-09-03T08:53:58.603Z,36.74
2022-09-03T08:54:58.577Z,35.45
2022-09-03T08:55:59.583Z,36.58
2022-09-03T08:56:58.632Z,35.61
2022-09-03T08:57:58.569Z,35.29
2022-09-03T08:58:58.574Z,36.90
2022-09-03T08:59:58.550Z,36.09
2022-09-03T09:00:58.540Z,34.80
2022-09-03T09:01:58.644Z,36.58
2022-09-03T09:02:58.557Z,36.58
2022-09-03T09:03:58.544Z,35.13
2022-09-03T09:04:58.543Z,34.64
2022-09-03T09:05:58.517Z,36.25
2022-09-03T09:06:58.506Z,36.09
2022-09-03T09:07:58.510Z,37.71
2022-09-03T09:08:58.505Z,38.35
2022-09-03T09:09:58.479Z,38.03
2022-09-03T09:10:58.476Z,37.54
2022-09-03T09:11:58.467Z,38.03
2022-09-03T09:12:58.494Z,37.87
2022-09-03T09:13:58.471Z,36.58
2022-09-03T09:14:58.454Z,37.71
2022-09-03T09:15:58.476Z,36.90
2022-09-03T09:16:58.426Z,36.90
2022-09-03T09:17:58.440Z,36.58
2022-09-03T09:18:58.442Z,37.22
2022-09-03T09:19:58.394Z,36.74
2022-09-03T09:20:58.402Z,34.32
2022-09-03T09:21:58.393Z,34.16
2022-09-03T09:22:58.392Z,35.61
2022-09-03T09:23:58.398Z,33.52
2022-09-03T09:24:58.367Z,32.23
2022-09-03T09:25:58.377Z,33.35
2022-09-03T09:26:58.371Z,34.48
2022-09-03T09:27:58.355Z,34.97
2022-09-03T09:28:58.359Z,33.03
2022-09-03T09:29:58.337Z,33.52
2022-09-03T09:30:58.428Z,34.16
2022-09-03T09:31:58.320Z,35.45
2022-09-03T09:32:58.324Z,32.39
2022-09-03T09:34:00.438Z,33.19
2022-09-03T09:34:58.319Z,31.74
2022-09-03T09:35:58.290Z,34.32
2022-09-03T09:36:58.286Z,31.42
2022-09-03T09:37:58.309Z,31.58
2022-09-03T09:38:58.327Z,31.10
2022-09-03T09:39:58.344Z,32.07
2022-09-03T09:40:58.272Z,32.55
2022-09-03T09:41:58.258Z,33.19
2022-09-03T09:42:58.311Z,33.03
2022-09-03T09:43:58.266Z,30.94
2022-09-03T09:44:58.236Z,31.42
2022-09-03T09:45:58.307Z,32.71
2022-09-03T09:46:58.272Z,32.07
2022-09-03T09:47:58.217Z,33.35
2022-09-03T09:48:58.260Z,33.35
2022-09-03T09:49:58.212Z,30.45
2022-09-03T09:50:58.221Z,31.74
2022-09-03T09:51:58.183Z,30.62
2022-09-03T09:52:59.219Z,32.55
2022-09-03T09:53:59.192Z,30.62
2022-09-03T09:54:58.169Z,31.26
2022-09-03T09:55:58.208Z,31.26
2022-09-03T09:56:58.166Z,31.10
2022-09-03T09:57:58.156Z,31.74
2022-09-03T09:58:58.164Z,33.19
2022-09-03T09:59:58.155Z,32.07
2022-09-03T10:00:58.126Z,32.71
2022-09-03T10:01:58.193Z,31.74
2022-09-03T10:02:58.149Z,31.58
2022-09-03T10:03:58.143Z,33.19
2022-09-03T10:04:58.103Z,29.81
2022-09-03T10:05:58.100Z,31.42
2022-09-03T10:06:58.093Z,31.58
2022-09-03T10:07:58.088Z,31.26
2022-09-03T10:08:58.088Z,31.58
2022-09-03T10:09:58.082Z,32.39
2022-09-03T10:10:58.063Z,30.94
2022-09-03T10:11:58.046Z,32.71
2022-09-03T10:12:58.055Z,30.62
2022-09-03T10:13:58.057Z,29.49
2022-09-03T10:14:58.024Z,30.62
2022-09-03T10:15:58.074Z,29.97
2022-09-03T10:16:58.030Z,30.78
2022-09-03T10:17:58.007Z,30.29
2022-09-03T10:18:58.007Z,32.87
2022-09-03T10:19:57.989Z,29.81
2022-09-03T10:20:57.990Z,29.49
2022-09-03T10:21:57.987Z,31.90
2022-09-03T10:22:57.975Z,29.81
2022-09-03T10:23:57.985Z,29.97
2022-09-03T10:24:57.946Z,30.94
2022-09-03T10:25:57.966Z,31.42
2022-09-03T10:26:57.947Z,30.29
2022-09-03T10:27:59.914Z,29.49
2022-09-03T10:28:57.963Z,31.42
2022-09-03T10:29:57.932Z,29.81
2022-09-03T10:30:57.930Z,30.29
2022-09-03T10:31:57.906Z,30.94
2022-09-03T10:32:57.921Z,31.10
2022-09-03T10:33:58.925Z,31.74
2022-09-03T10:34:57.889Z,30.62
2022-09-03T10:35:57.883Z,31.58
2022-09-03T10:36:57.871Z,29.97
2022-09-03T10:37:57.881Z,29.17
2022-09-03T10:38:57.895Z,31.42
2022-09-03T10:39:57.869Z,34.16
2022-09-03T10:40:57.846Z,30.45
2022-09-03T10:41:57.850Z,30.78
2022-09-03T10:42:57.831Z,30.29
2022-09-03T10:43:57.823Z,31.74
2022-09-03T10:44:57.833Z,29.00
2022-09-03T10:45:57.838Z,30.62
2022-09-03T10:46:57.811Z,28.84
2022-09-03T10:47:58.701Z,30.45
2022-09-03T10:48:57.783Z,29.97
2022-09-03T10:49:57.796Z,33.84
2022-09-03T10:50:57.774Z,32.87
2022-09-03T10:51:58.675Z,32.55
2022-09-03T10:52:57.762Z,31.10
2022-09-03T10:53:57.801Z,33.35
2022-09-03T10:54:57.794Z,34.32
2022-09-03T10:55:58.656Z,38.03
2022-09-03T10:56:57.794Z,34.16
2022-09-03T10:57:57.722Z,35.61
2022-09-03T10:58:57.729Z,32.39
2022-09-03T10:59:57.749Z,33.03
2022-09-03T11:00:57.706Z,33.52
2022-09-03T11:01:57.699Z,30.62
2022-09-03T11:02:57.755Z,30.13
2022-09-03T11:03:57.681Z,29.97
2022-09-03T11:04:57.692Z,29.49
2022-09-03T11:05:57.677Z,32.55
2022-09-03T11:06:57.664Z,31.74
2022-09-03T11:07:57.663Z,30.29
2022-09-03T11:08:57.652Z,29.65
2022-09-03T11:09:57.662Z,33.03
2022-09-03T11:10:57.630Z,30.62
2022-09-03T11:11:57.630Z,35.45
2022-09-03T11:12:57.630Z,31.26
2022-09-03T11:13:57.625Z,30.78
2022-09-03T11:14:57.681Z,30.62
2022-09-03T11:15:57.644Z,33.52
2022-09-03T11:16:57.647Z,33.03
2022-09-03T11:17:57.592Z,32.55
2022-09-03T11:18:58.516Z,32.55
2022-09-03T11:19:57.607Z,33.68
2022-09-03T11:20:57.782Z,32.39
2022-09-03T11:21:57.628Z,32.55
2022-09-03T11:22:58.177Z,33.52
2022-09-03T11:23:57.654Z,33.68
2022-09-03T11:24:57.534Z,33.68
2022-09-03T11:25:57.530Z,32.23
2022-09-03T11:26:57.571Z,34.48
2022-09-03T11:27:57.523Z,32.55
2022-09-03T11:28:57.551Z,32.39
2022-09-03T11:29:57.524Z,32.71
2022-09-03T11:30:57.590Z,30.29
2022-09-03T11:31:57.505Z,31.58
2022-09-03T11:32:57.499Z,32.39
2022-09-03T11:33:57.595Z,32.07
2022-09-03T11:34:58.663Z,33.84
2022-09-03T11:35:57.475Z,31.10
2022-09-03T11:36:57.623Z,31.74
2022-09-03T11:37:57.472Z,33.03
2022-09-03T11:38:57.463Z,36.09
2022-09-03T11:39:57.465Z,31.10
2022-09-03T11:40:57.448Z,31.26
2022-09-03T11:41:57.521Z,30.45
2022-09-03T11:42:57.427Z,32.23
2022-09-03T11:44:00.109Z,32.39
2022-09-03T11:44:59.426Z,31.42
2022-09-03T11:45:57.449Z,33.52
2022-09-03T11:46:57.398Z,31.10
2022-09-03T11:47:57.400Z,33.19
2022-09-03T11:48:57.410Z,32.39
2022-09-03T11:49:57.386Z,31.42
2022-09-03T11:50:57.378Z,32.07
2022-09-03T11:51:57.370Z,32.23
2022-09-03T11:52:57.420Z,32.39
2022-09-03T11:53:57.375Z,31.90
2022-09-03T11:54:57.347Z,34.16
2022-09-03T11:55:57.356Z,31.58
2022-09-03T11:56:57.343Z,32.55
2022-09-03T11:57:57.323Z,31.74
2022-09-03T11:58:57.340Z,33.68
2022-09-03T11:59:57.348Z,34.64
2022-09-03T12:00:57.317Z,34.80
2022-09-03T12:01:57.300Z,35.13
2022-09-03T12:02:59.077Z,34.48
2022-09-03T12:03:58.299Z,36.74
2022-09-03T12:04:57.336Z,35.61
2022-09-03T12:05:57.285Z,37.38
2022-09-03T12:06:57.275Z,34.48
2022-09-03T12:07:57.312Z,36.74
2022-09-03T12:08:57.268Z,36.25
2022-09-03T12:09:58.166Z,35.29
2022-09-03T12:10:57.249Z,37.71
2022-09-03T12:11:57.242Z,37.71
2022-09-03T12:12:57.256Z,36.09
2022-09-03T12:13:57.234Z,37.38
2022-09-03T12:14:57.251Z,36.09
2022-09-03T12:15:57.245Z,34.97
2022-09-03T12:16:57.203Z,35.13
2022-09-03T12:17:57.202Z,34.48
2022-09-03T12:18:57.201Z,36.42
2022-09-03T12:19:57.167Z,33.35
2022-09-03T12:20:57.174Z,34.80
2022-09-03T12:21:57.183Z,35.61
2022-09-03T12:22:57.208Z,36.09
2022-09-03T12:23:58.289Z,36.42
2022-09-03T12:24:57.174Z,34.64
2022-09-03T12:25:57.137Z,35.61
2022-09-03T12:26:57.128Z,36.74
2022-09-03T12:27:57.129Z,38.19
2022-09-03T12:28:57.197Z,40.28
2022-09-03T12:29:57.105Z,37.54
2022-09-03T12:30:57.186Z,38.99
2022-09-03T12:31:57.083Z,38.35
2022-09-03T12:32:57.094Z,35.77
2022-09-03T12:33:57.103Z,35.29
2022-09-03T12:34:57.074Z,39.48
2022-09-03T12:35:58.893Z,36.74
2022-09-03T12:36:59.692Z,38.03
2022-09-03T12:38:08.831Z,37.06
2022-09-03T12:39:11.358Z,38.83
2022-09-03T12:40:07.998Z,34.00
2022-09-03T12:41:28.842Z,37.54
2022-09-03T12:41:59.027Z,36.25
2022-09-03T12:43:36.995Z,36.74
2022-09-03T12:43:59.054Z,37.54
2022-09-03T12:44:57.020Z,36.09
2022-09-03T12:46:12.487Z,37.22
2022-09-03T12:47:59.047Z,42.86
2022-09-03T12:49:58.967Z,43.99
2022-09-03T12:50:57.984Z,44.31
2022-09-03T12:52:00.687Z,46.25
2022-09-03T12:52:57.972Z,36.58
2022-09-03T12:53:56.967Z,37.71